createdAt,value
2023-01-21T00:06:45.991Z,-0.34
2023-01-21T00:15:09.159Z,-0.37
2023-01-21T00:23:32.070Z,-0.39
2023-01-21T00:31:55.014Z,-0.48
2023-01-21T00:40:18.388Z,-0.58
2023-01-21T00:48:42.087Z,-0.64
2023-01-21T00:57:07.012Z,-0.69
2023-01-21T01:05:30.104Z,-0.76
2023-01-21T01:13:54.378Z,-0.78
2023-01-21T01:22:17.296Z,-0.79
2023-01-21T01:30:40.200Z,-0.81
2023-01-21T01:39:03.398Z,-0.83
2023-01-21T01:47:49.925Z,-0.84
2023-01-21T01:56:13.327Z,-0.83
2023-01-21T02:05:04.780Z,-0.81
2023-01-21T02:13:30.670Z,-0.80
2023-01-21T02:22:08.422Z,-0.80
2023-01-21T02:30:54.197Z,-0.82
2023-01-21T02:39:42.283Z,-0.82
2023-01-21T02:48:13.942Z,-0.80
2023-01-21T02:56:36.963Z,-0.80
2023-01-21T03:05:13.637Z,-0.81
2023-01-21T03:14:07.476Z,-0.80
2023-01-21T03:22:44.511Z,-0.79
2023-01-21T03:31:18.521Z,-0.77
2023-01-21T03:40:02.925Z,-0.75
2023-01-21T03:49:30.298Z,-0.74
2023-01-21T03:57:54.687Z,-0.72
2023-01-21T04:06:23.258Z,-0.73
2023-01-21T04:14:48.970Z,-0.74
2023-01-21T04:23:12.942Z,-0.74
2023-01-21T04:31:35.929Z,-0.72
2023-01-21T04:39:58.827Z,-0.69
2023-01-21T04:48:21.791Z,-0.66
2023-01-21T04:56:44.675Z,-0.67
2023-01-21T05:05:07.866Z,-0.69
2023-01-21T05:13:30.836Z,-0.67
2023-01-21T05:21:53.766Z,-0.65
2023-01-21T05:30:18.427Z,-0.61
2023-01-21T05:38:41.663Z,-0.63
2023-01-21T05:47:04.692Z,-0.62
2023-01-21T05:55:27.580Z,-0.58
2023-01-21T06:03:50.556Z,-0.56
2023-01-21T06:12:13.642Z,-0.54
2023-01-21T06:20:37.035Z,-0.53
2023-01-21T06:29:00.195Z,-0.54
2023-01-21T06:37:23.190Z,-0.56
2023-01-21T06:45:46.575Z,-0.53
2023-01-21T06:54:12.624Z,-0.49
2023-01-21T07:02:35.646Z,-0.48
2023-01-21T07:10:58.818Z,-0.46
2023-01-21T07:19:21.658Z,-0.41
2023-01-21T07:27:44.556Z,-0.36
2023-01-21T07:36:07.899Z,-0.35
2023-01-21T07:44:30.841Z,-0.32
2023-01-21T07:52:58.671Z,-0.27
2023-01-21T08:01:24.413Z,-0.26
2023-01-21T08:09:48.192Z,-0.24
2023-01-21T08:18:11.039Z,-0.23
2023-01-21T08:26:33.922Z,-0.25
2023-01-21T08:34:56.935Z,-0.24
2023-01-21T08:43:19.797Z,-0.21
2023-01-21T08:51:42.834Z,-0.14
2023-01-21T09:00:07.041Z,-0.06
2023-01-21T09:08:30.055Z,0.01
2023-01-21T09:16:55.863Z,0.05
2023-01-21T09:25:20.949Z,0.06
2023-01-21T09:33:56.088Z,0.10
2023-01-21T09:42:23.295Z,0.15
2023-01-21T09:50:50.493Z,0.17
2023-01-21T09:59:27.819Z,0.15
2023-01-21T10:08:18.818Z,0.15
2023-01-21T10:17:01.144Z,0.22
2023-01-21T10:25:39.635Z,0.33
2023-01-21T10:34:05.503Z,0.42
2023-01-21T10:42:50.451Z,0.48
2023-01-21T10:51:20.841Z,0.51
2023-01-21T10:59:43.949Z,0.56
2023-01-21T13:03:24.895Z,0.69
2023-01-21T13:11:54.852Z,0.90
2023-01-21T13:20:20.976Z,0.94
2023-01-21T13:28:43.954Z,0.98
2023-01-21T13:37:42.373Z,1.01
2023-01-21T13:46:05.534Z,0.99
2023-01-21T13:54:55.650Z,0.94
2023-01-21T14:03:30.972Z,0.93
2023-01-21T14:12:01.847Z,0.91
2023-01-21T14:20:53.578Z,0.90
2023-01-21T14:29:21.056Z,0.89
2023-01-21T14:37:53.053Z,0.87
2023-01-21T14:46:34.160Z,0.86
2023-01-21T14:54:57.682Z,0.82
2023-01-21T15:03:28.381Z,0.82
2023-01-21T15:11:59.921Z,0.83
2023-01-21T15:20:50.405Z,0.82
2023-01-21T15:29:32.791Z,0.79
2023-01-21T15:38:15.888Z,0.82
2023-01-21T15:46:41.594Z,0.85
2023-01-21T15:55:25.952Z,0.86
2023-01-21T16:03:58.708Z,0.87
2023-01-21T16:12:49.027Z,0.97
2023-01-21T16:21:12.775Z,1.00
2023-01-21T16:29:38.574Z,0.95
2023-01-21T16:50:19.623Z,1.20
2023-01-21T16:58:47.232Z,1.30
2023-01-21T17:07:21.937Z,1.24
2023-01-21T17:15:57.787Z,1.13
2023-01-21T17:24:44.013Z,1.01
2023-01-21T17:33:27.601Z,0.92
2023-01-21T17:41:50.529Z,0.88
2023-01-21T17:50:28.876Z,0.81
2023-01-21T17:58:52.862Z,0.66
2023-01-21T18:07:26.604Z,0.61
2023-01-21T18:15:51.798Z,0.67
2023-01-21T18:24:19.200Z,0.68
2023-01-21T18:32:42.877Z,0.69
2023-01-21T18:41:06.313Z,0.70
2023-01-21T18:49:29.487Z,0.71
2023-01-21T18:57:53.007Z,0.77
2023-01-21T19:06:17.400Z,0.83
2023-01-21T19:14:40.932Z,0.92
2023-01-21T19:23:03.759Z,0.99
2023-01-21T19:31:27.390Z,0.99
2023-01-21T19:39:51.307Z,0.98
2023-01-21T19:48:17.517Z,0.89
2023-01-21T19:56:40.413Z,0.85
2023-01-21T20:05:05.642Z,0.89
2023-01-21T20:13:32.309Z,0.79
2023-01-21T20:22:01.975Z,0.73
2023-01-21T20:30:31.921Z,0.70
2023-01-21T20:38:56.024Z,0.74
2023-01-21T20:47:32.401Z,0.74
2023-01-21T20:56:13.555Z,0.69
2023-01-21T21:04:36.434Z,0.77
2023-01-21T21:12:59.508Z,0.82
2023-01-21T21:21:24.024Z,0.88
2023-01-21T21:29:47.223Z,0.94
2023-01-21T21:38:21.880Z,0.93
2023-01-21T21:47:04.624Z,0.85
2023-01-21T21:55:29.283Z,0.75
2023-01-21T22:03:53.095Z,0.70
2023-01-21T22:12:17.369Z,0.67
2023-01-21T22:20:40.746Z,0.65
2023-01-21T22:29:07.164Z,0.71
2023-01-21T22:37:30.044Z,0.78
2023-01-21T22:45:56.939Z,0.84
2023-01-21T22:54:19.963Z,0.91
2023-01-21T23:02:43.013Z,0.88
2023-01-21T23:11:08.752Z,0.85
2023-01-21T23:19:31.709Z,0.83
2023-01-21T23:27:55.033Z,0.74
2023-01-21T23:36:19.386Z,0.65
2023-01-21T23:44:42.265Z,0.61
2023-01-21T23:53:05.308Z,0.59
